createdAt,value
2017-08-29T00:00:16.341Z,1012.04
2017-08-29T00:01:16.333Z,1012.10
2017-08-29T00:02:16.330Z,1012.10
2017-08-29T00:03:16.325Z,1012.07
2017-08-29T00:04:16.322Z,1012.06
2017-08-29T00:05:16.322Z,1012.14
2017-08-29T00:06:16.319Z,1012.06
2017-08-29T00:07:16.314Z,1012.14
2017-08-29T00:08:16.310Z,1012.11
2017-08-29T00:09:16.306Z,1012.06
2017-08-29T00:10:16.301Z,1012.12
2017-08-29T00:11:16.297Z,1012.15
2017-08-29T00:12:16.292Z,1012.15
2017-08-29T00:13:16.285Z,1012.17
2017-08-29T00:14:16.280Z,1012.11
2017-08-29T00:15:16.277Z,1012.11
2017-08-29T00:16:16.272Z,1012.11
2017-08-29T00:17:16.269Z,1012.13
2017-08-29T00:18:16.266Z,1012.14
2017-08-29T00:19:16.262Z,1012.17
2017-08-29T00:20:16.257Z,1012.13
2017-08-29T00:21:16.258Z,1012.14
2017-08-29T00:22:16.253Z,1012.13
2017-08-29T00:23:16.249Z,1012.14
2017-08-29T00:24:16.244Z,1012.15
2017-08-29T00:25:16.241Z,1012.14
2017-08-29T00:26:16.236Z,1012.11
2017-08-29T00:27:16.232Z,1012.08
2017-08-29T00:28:16.229Z,1012.09
2017-08-29T00:29:16.221Z,1012.09
2017-08-29T00:30:16.216Z,1012.05
2017-08-29T00:31:16.212Z,1012.03
2017-08-29T00:32:16.207Z,1012.09
2017-08-29T00:33:16.203Z,1012.08
2017-08-29T00:34:16.200Z,1012.07
2017-08-29T00:35:16.197Z,1012.03
2017-08-29T00:36:16.192Z,1011.98
2017-08-29T00:37:16.193Z,1011.94
2017-08-29T00:38:16.191Z,1012.00
2017-08-29T00:39:16.184Z,1011.95
2017-08-29T00:40:16.179Z,1012.00
2017-08-29T00:41:16.177Z,1011.96
2017-08-29T00:42:16.181Z,1011.96
2017-08-29T00:43:16.170Z,1011.95
2017-08-29T00:44:16.164Z,1011.95
2017-08-29T00:45:16.156Z,1011.98
2017-08-29T00:46:16.153Z,1011.99
2017-08-29T00:47:16.150Z,1011.95
2017-08-29T00:48:16.144Z,1011.91
2017-08-29T00:49:16.140Z,1011.86
2017-08-29T00:50:16.137Z,1011.91
2017-08-29T00:51:16.136Z,1011.92
2017-08-29T00:52:16.129Z,1011.88
2017-08-29T00:53:16.130Z,1011.90
2017-08-29T00:54:16.126Z,1011.87
2017-08-29T00:55:16.124Z,1011.86
2017-08-29T00:56:16.117Z,1011.85
2017-08-29T00:57:16.114Z,1011.86
2017-08-29T00:58:16.112Z,1011.87
2017-08-29T00:59:16.106Z,1011.83
2017-08-29T01:00:16.103Z,1011.82
2017-08-29T01:01:16.095Z,1011.80
2017-08-29T01:02:16.091Z,1011.82
2017-08-29T01:03:16.087Z,1011.80
2017-08-29T01:04:16.084Z,1011.79
2017-08-29T01:05:16.084Z,1011.76
2017-08-29T01:06:16.081Z,1011.81
2017-08-29T01:07:16.076Z,1011.72
2017-08-29T01:08:16.072Z,1011.74
2017-08-29T01:09:16.065Z,1011.71
2017-08-29T01:10:16.060Z,1011.72
2017-08-29T01:11:16.057Z,1011.76
2017-08-29T01:12:16.051Z,1011.75
2017-08-29T01:13:16.049Z,1011.76
2017-08-29T01:14:16.046Z,1011.77
2017-08-29T01:15:16.041Z,1011.75
2017-08-29T01:16:16.038Z,1011.74
2017-08-29T01:17:16.037Z,1011.73
2017-08-29T01:18:16.034Z,1011.70
2017-08-29T01:19:16.032Z,1011.70
2017-08-29T01:20:16.045Z,1011.74
2017-08-29T01:21:16.030Z,1011.67
2017-08-29T01:22:16.020Z,1011.70
2017-08-29T01:23:16.017Z,1011.74
2017-08-29T01:24:16.011Z,1011.65
2017-08-29T01:25:16.003Z,1011.65
2017-08-29T01:26:16.000Z,1011.67
2017-08-29T01:27:15.996Z,1011.68
2017-08-29T01:28:15.993Z,1011.69
2017-08-29T01:29:15.989Z,1011.61
2017-08-29T01:30:15.985Z,1011.65
2017-08-29T01:31:15.982Z,1011.64
2017-08-29T01:32:15.977Z,1011.63
2017-08-29T01:33:15.977Z,1011.64
2017-08-29T01:34:15.974Z,1011.64
2017-08-29T01:35:15.970Z,1011.68
2017-08-29T01:36:15.967Z,1011.67
2017-08-29T01:37:15.961Z,1011.63
2017-08-29T01:38:15.957Z,1011.61
2017-08-29T01:39:15.955Z,1011.60
2017-08-29T01:40:15.951Z,1011.57
2017-08-29T01:41:15.943Z,1011.57
2017-08-29T01:42:15.940Z,1011.63
2017-08-29T01:43:15.935Z,1011.58
2017-08-29T01:44:15.931Z,1011.59
2017-08-29T01:45:15.927Z,1011.56
2017-08-29T01:46:15.924Z,1011.56
2017-08-29T01:47:15.921Z,1011.58
2017-08-29T01:48:15.916Z,1011.53
2017-08-29T01:49:15.917Z,1011.56
2017-08-29T01:50:15.913Z,1011.53
2017-08-29T01:51:15.909Z,1011.58
2017-08-29T01:52:15.904Z,1011.50
2017-08-29T01:53:15.901Z,1011.56
2017-08-29T01:54:15.897Z,1011.53
2017-08-29T01:55:15.894Z,1011.51
2017-08-29T01:56:15.890Z,1011.51
2017-08-29T01:57:15.882Z,1011.56
2017-08-29T01:58:15.877Z,1011.54
2017-08-29T01:59:15.875Z,1011.54
2017-08-29T02:00:15.869Z,1011.51
2017-08-29T02:01:15.867Z,1011.55
2017-08-29T02:02:15.863Z,1011.57
2017-08-29T02:03:15.858Z,1011.57
2017-08-29T02:04:15.854Z,1011.56
2017-08-29T02:05:15.855Z,1011.53
2017-08-29T02:06:15.852Z,1011.56
2017-08-29T02:07:15.848Z,1011.51
2017-08-29T02:08:15.843Z,1011.48
2017-08-29T02:09:15.836Z,1011.47
2017-08-29T02:10:15.832Z,1011.46
2017-08-29T02:11:15.827Z,1011.44
2017-08-29T02:12:15.824Z,1011.46
2017-08-29T02:13:15.829Z,1011.42
2017-08-29T02:14:15.822Z,1011.39
2017-08-29T02:15:15.817Z,1011.39
2017-08-29T02:16:15.812Z,1011.39
2017-08-29T02:17:15.808Z,1011.41
2017-08-29T02:18:15.807Z,1011.35
2017-08-29T02:19:15.801Z,1011.37
2017-08-29T02:20:15.797Z,1011.43
2017-08-29T02:21:15.790Z,1011.39
2017-08-29T02:22:15.786Z,1011.42
2017-08-29T02:23:15.783Z,1011.38
2017-08-29T02:24:15.777Z,1011.43
2017-08-29T02:25:15.775Z,1011.37
2017-08-29T02:26:15.770Z,1011.40
2017-08-29T02:27:15.781Z,1011.42
2017-08-29T02:28:15.761Z,1011.41
2017-08-29T02:29:15.764Z,1011.42
2017-08-29T02:30:15.759Z,1011.44
2017-08-29T02:31:15.755Z,1011.43
2017-08-29T02:32:15.752Z,1011.41
2017-08-29T02:33:15.746Z,1011.41
2017-08-29T02:34:15.743Z,1011.39
2017-08-29T02:35:15.739Z,1011.41
2017-08-29T02:36:15.735Z,1011.44
2017-08-29T02:37:15.728Z,1011.42
2017-08-29T02:38:15.725Z,1011.44
2017-08-29T02:39:15.721Z,1011.41
2017-08-29T02:40:15.716Z,1011.38
2017-08-29T02:41:15.711Z,1011.42
2017-08-29T02:42:15.707Z,1011.44
2017-08-29T02:43:15.703Z,1011.41
2017-08-29T02:44:15.700Z,1011.39
2017-08-29T02:45:15.700Z,1011.39
2017-08-29T02:46:15.696Z,1011.31
2017-08-29T02:47:15.693Z,1011.37
2017-08-29T02:48:15.688Z,1011.30
2017-08-29T02:49:15.684Z,1011.32
2017-08-29T02:50:15.680Z,1011.34
2017-08-29T02:51:15.677Z,1011.27
2017-08-29T02:52:15.674Z,1011.34
2017-08-29T02:53:15.666Z,1011.30
2017-08-29T02:54:15.661Z,1011.35
2017-08-29T02:55:15.656Z,1011.35
2017-08-29T02:56:15.653Z,1011.34
2017-08-29T02:57:15.649Z,1011.37
2017-08-29T02:58:15.647Z,1011.32
2017-08-29T02:59:15.641Z,1011.32
2017-08-29T03:00:15.637Z,1011.36
2017-08-29T03:01:15.638Z,1011.39
2017-08-29T03:02:15.634Z,1011.34
2017-08-29T03:03:15.630Z,1011.34
2017-08-29T03:04:15.629Z,1011.30
2017-08-29T03:05:15.621Z,1011.28
2017-08-29T03:06:15.618Z,1011.30
2017-08-29T03:07:15.613Z,1011.26
2017-08-29T03:08:15.609Z,1011.26
2017-08-29T03:09:15.602Z,1011.28
2017-08-29T03:10:15.598Z,1011.29
2017-08-29T03:11:15.593Z,1011.27
2017-08-29T03:12:15.588Z,1011.30
2017-08-29T03:13:15.590Z,1011.30
2017-08-29T03:14:15.586Z,1011.29
2017-08-29T03:15:15.583Z,1011.29
2017-08-29T03:16:15.578Z,1011.31
2017-08-29T03:17:15.570Z,1011.28
2017-08-29T03:18:15.566Z,1011.27
2017-08-29T03:19:15.562Z,1011.29
2017-08-29T03:20:15.557Z,1011.28
2017-08-29T03:21:15.553Z,1011.28
2017-08-29T03:22:15.552Z,1011.32
2017-08-29T03:23:15.547Z,1011.25
2017-08-29T03:24:15.543Z,1011.25
2017-08-29T03:25:15.543Z,1011.29
2017-08-29T03:26:15.538Z,1011.31
2017-08-29T03:27:15.534Z,1011.28
2017-08-29T03:28:15.530Z,1011.27
2017-08-29T03:29:15.527Z,1011.30
2017-08-29T03:30:15.530Z,1011.27
2017-08-29T03:31:15.519Z,1011.27
2017-08-29T03:32:15.514Z,1011.27
2017-08-29T03:33:15.507Z,1011.24
2017-08-29T03:34:15.503Z,1011.22
2017-08-29T03:35:15.499Z,1011.25
2017-08-29T03:36:15.494Z,1011.24
2017-08-29T03:37:15.490Z,1011.25
2017-08-29T03:38:15.487Z,1011.28
2017-08-29T03:39:15.481Z,1011.28
2017-08-29T03:40:15.476Z,1011.30
2017-08-29T03:41:15.477Z,1011.25
2017-08-29T03:42:15.474Z,1011.30
2017-08-29T03:43:15.472Z,1011.28
2017-08-29T03:44:15.465Z,1011.26
2017-08-29T03:45:15.461Z,1011.28
2017-08-29T03:46:15.457Z,1011.25
2017-08-29T03:47:15.455Z,1011.29
2017-08-29T03:48:15.448Z,1011.30
2017-08-29T03:49:15.449Z,1011.29
2017-08-29T03:50:15.436Z,1011.25
2017-08-29T03:51:15.433Z,1011.29
2017-08-29T03:52:15.428Z,1011.24
2017-08-29T03:53:15.425Z,1011.21
2017-08-29T03:54:15.420Z,1011.23
2017-08-29T03:55:15.416Z,1011.21
2017-08-29T03:56:15.412Z,1011.26
2017-08-29T03:57:15.415Z,1011.21
2017-08-29T03:58:15.408Z,1011.25
2017-08-29T03:59:15.404Z,1011.25
2017-08-29T04:00:15.400Z,1011.26
2017-08-29T04:01:15.396Z,1011.26
2017-08-29T04:02:15.397Z,1011.25
2017-08-29T04:03:15.388Z,1011.24
2017-08-29T04:04:15.386Z,1011.24
2017-08-29T04:05:15.375Z,1011.26
2017-08-29T04:06:15.372Z,1011.26
2017-08-29T04:07:15.369Z,1011.24
2017-08-29T04:08:15.364Z,1011.28
2017-08-29T04:09:15.360Z,1011.26
2017-08-29T04:10:15.357Z,1011.31
2017-08-29T04:11:15.351Z,1011.29
2017-08-29T04:12:15.349Z,1011.30
2017-08-29T04:13:15.348Z,1011.31
2017-08-29T04:14:15.342Z,1011.27
2017-08-29T04:15:15.339Z,1011.25
2017-08-29T04:16:15.338Z,1011.26
2017-08-29T04:17:15.328Z,1011.29
2017-08-29T04:18:15.323Z,1011.27
2017-08-29T04:19:15.319Z,1011.35
2017-08-29T04:20:15.315Z,1011.33
2017-08-29T04:21:15.313Z,1011.34
2017-08-29T04:22:15.311Z,1011.36
2017-08-29T04:23:15.306Z,1011.36
2017-08-29T04:24:15.300Z,1011.36
2017-08-29T04:25:15.297Z,1011.36
2017-08-29T04:26:15.292Z,1011.36
2017-08-29T04:27:15.289Z,1011.34
2017-08-29T04:28:15.285Z,1011.35
2017-08-29T04:29:15.277Z,1011.32
2017-08-29T04:30:15.273Z,1011.34
2017-08-29T04:31:15.268Z,1011.33
2017-08-29T04:32:15.264Z,1011.34
2017-08-29T04:33:15.260Z,1011.31
2017-08-29T04:34:15.256Z,1011.36
2017-08-29T04:35:15.252Z,1011.32
2017-08-29T04:36:15.246Z,1011.36
2017-08-29T04:37:15.247Z,1011.32
2017-08-29T04:38:15.242Z,1011.34
2017-08-29T04:39:15.239Z,1011.32
2017-08-29T04:40:15.235Z,1011.27
2017-08-29T04:41:15.230Z,1011.29
2017-08-29T04:42:15.227Z,1011.29
2017-08-29T04:43:15.221Z,1011.32
2017-08-29T04:44:15.216Z,1011.32
2017-08-29T04:45:15.208Z,1011.31
2017-08-29T04:46:15.204Z,1011.33
2017-08-29T04:47:15.200Z,1011.32
2017-08-29T04:48:15.195Z,1011.36
2017-08-29T04:49:15.192Z,1011.34
2017-08-29T04:50:15.189Z,1011.36
2017-08-29T04:51:15.184Z,1011.33
2017-08-29T04:52:15.180Z,1011.37
2017-08-29T04:53:15.180Z,1011.40
2017-08-29T04:54:15.175Z,1011.44
2017-08-29T04:55:15.171Z,1011.38
2017-08-29T04:56:15.169Z,1011.42
2017-08-29T04:57:15.161Z,1011.39
2017-08-29T04:58:15.159Z,1011.46
2017-08-29T04:59:15.154Z,1011.49
2017-08-29T05:00:15.153Z,1011.46
2017-08-29T05:01:15.141Z,1011.51
2017-08-29T05:02:15.138Z,1011.50
2017-08-29T05:03:15.134Z,1011.52
2017-08-29T05:04:15.132Z,1011.50
2017-08-29T05:05:15.125Z,1011.48
2017-08-29T05:06:15.125Z,1011.44
2017-08-29T05:07:15.117Z,1011.44
2017-08-29T05:08:15.112Z,1011.47
2017-08-29T05:09:15.113Z,1011.44
2017-08-29T05:10:15.109Z,1011.46
2017-08-29T05:11:15.104Z,1011.50
2017-08-29T05:12:15.100Z,1011.41
2017-08-29T05:13:15.096Z,1011.48
2017-08-29T05:14:15.091Z,1011.50
2017-08-29T05:15:15.088Z,1011.56
2017-08-29T05:16:15.083Z,1011.66
2017-08-29T05:17:15.074Z,1011.68
2017-08-29T05:18:15.073Z,1011.69
2017-08-29T05:19:15.067Z,1011.77
2017-08-29T05:20:15.065Z,1011.72
2017-08-29T05:21:15.063Z,1011.73
2017-08-29T05:22:15.060Z,1011.73
2017-08-29T05:23:15.056Z,1011.73
2017-08-29T05:24:15.052Z,1011.78
2017-08-29T05:25:15.043Z,1011.81
2017-08-29T05:26:15.040Z,1011.82
2017-08-29T05:27:15.038Z,1011.84
2017-08-29T05:28:15.033Z,1011.89
2017-08-29T05:29:15.030Z,1011.89
2017-08-29T05:30:15.035Z,1011.84
2017-08-29T05:31:15.025Z,1011.81
2017-08-29T05:32:15.021Z,1011.81
2017-08-29T05:33:15.022Z,1011.86
2017-08-29T05:34:15.020Z,1011.96
2017-08-29T05:35:15.017Z,1012.03
2017-08-29T05:36:15.013Z,1012.01
2017-08-29T05:37:15.011Z,1012.01
2017-08-29T05:38:15.010Z,1012.03
2017-08-29T05:39:15.007Z,1012.02
2017-08-29T05:40:15.005Z,1012.08
2017-08-29T05:41:14.999Z,1012.07
2017-08-29T05:42:14.997Z,1012.11
2017-08-29T05:43:14.994Z,1012.07
2017-08-29T05:44:14.991Z,1012.10
2017-08-29T05:45:14.993Z,1012.13
2017-08-29T05:46:14.993Z,1012.15
2017-08-29T05:47:14.987Z,1012.12
2017-08-29T05:48:14.987Z,1012.18
2017-08-29T05:49:14.989Z,1012.19
2017-08-29T05:50:14.992Z,1012.19
2017-08-29T05:51:14.987Z,1012.18
2017-08-29T05:52:14.989Z,1012.23
2017-08-29T05:53:14.985Z,1012.21
2017-08-29T05:54:14.985Z,1012.17
2017-08-29T05:55:14.986Z,1012.19
2017-08-29T05:56:14.984Z,1012.22
2017-08-29T05:57:14.998Z,1012.24
2017-08-29T05:58:14.978Z,1012.25
2017-08-29T05:59:14.980Z,1012.22
2017-08-29T06:00:14.978Z,1012.26
2017-08-29T06:01:14.978Z,1012.33
2017-08-29T06:02:14.979Z,1012.28
2017-08-29T06:03:14.981Z,1012.30
2017-08-29T06:04:14.980Z,1012.34
2017-08-29T06:05:14.986Z,1012.33
2017-08-29T06:06:15.009Z,1012.33
2017-08-29T06:07:14.988Z,1012.34
2017-08-29T06:08:14.989Z,1012.42
2017-08-29T06:09:14.987Z,1012.41
2017-08-29T06:10:14.989Z,1012.39
2017-08-29T06:11:14.996Z,1012.39
2017-08-29T06:12:14.991Z,1012.45
2017-08-29T06:13:14.988Z,1012.39
2017-08-29T06:14:14.991Z,1012.43
2017-08-29T06:15:14.991Z,1012.45
2017-08-29T06:16:14.993Z,1012.46
2017-08-29T06:17:14.995Z,1012.46
2017-08-29T06:18:14.996Z,1012.46
2017-08-29T06:19:14.999Z,1012.47
2017-08-29T06:20:15.000Z,1012.46
2017-08-29T06:21:15.007Z,1012.41
2017-08-29T06:22:15.008Z,1012.47
2017-08-29T06:23:15.011Z,1012.46
2017-08-29T06:24:15.012Z,1012.49
2017-08-29T06:25:15.015Z,1012.48
2017-08-29T06:26:15.017Z,1012.48
2017-08-29T06:27:15.019Z,1012.46
2017-08-29T06:28:15.023Z,1012.39
2017-08-29T06:29:15.022Z,1012.38
2017-08-29T06:30:15.023Z,1012.44
2017-08-29T06:31:15.026Z,1012.42
2017-08-29T06:32:15.028Z,1012.48
2017-08-29T06:33:15.034Z,1012.52
2017-08-29T06:34:15.042Z,1012.53
2017-08-29T06:35:15.039Z,1012.56
2017-08-29T06:36:15.040Z,1012.59
2017-08-29T06:37:15.050Z,1012.56
2017-08-29T06:38:15.054Z,1012.46
2017-08-29T06:39:15.055Z,1012.45
2017-08-29T06:40:15.059Z,1012.48
2017-08-29T06:41:15.061Z,1012.52
2017-08-29T06:42:15.071Z,1012.50
2017-08-29T06:43:15.070Z,1012.53
2017-08-29T06:44:15.074Z,1012.55
2017-08-29T06:45:15.073Z,1012.60
2017-08-29T06:46:15.078Z,1012.61
2017-08-29T06:47:15.085Z,1012.62
2017-08-29T06:48:15.086Z,1012.59
2017-08-29T06:49:15.090Z,1012.56
2017-08-29T06:50:15.095Z,1012.51
2017-08-29T06:51:15.099Z,1012.42
2017-08-29T06:52:15.103Z,1012.41
2017-08-29T06:53:15.112Z,1012.55
2017-08-29T06:54:15.117Z,1012.53
2017-08-29T06:55:15.122Z,1012.50
2017-08-29T06:56:15.124Z,1012.61
2017-08-29T06:57:15.129Z,1012.68
2017-08-29T06:58:15.136Z,1012.00
2017-08-29T06:59:15.140Z,1012.02
2017-08-29T07:00:15.146Z,1012.01
2017-08-29T07:01:15.146Z,1011.96
2017-08-29T07:02:15.152Z,1011.98
2017-08-29T07:03:15.157Z,1012.03
2017-08-29T07:04:15.162Z,1011.99
2017-08-29T07:05:15.166Z,1012.01
2017-08-29T07:06:15.175Z,1012.05
2017-08-29T07:07:15.177Z,1012.00
2017-08-29T07:08:15.182Z,1012.02
2017-08-29T07:09:15.192Z,1012.05
2017-08-29T07:10:15.198Z,1012.04
2017-08-29T07:11:15.205Z,1012.05
2017-08-29T07:12:15.216Z,1012.01
2017-08-29T07:13:15.217Z,1012.02
2017-08-29T07:14:15.222Z,1012.02
2017-08-29T07:15:15.229Z,1011.93
2017-08-29T07:16:15.235Z,1012.01
2017-08-29T07:17:15.237Z,1011.97
2017-08-29T07:18:15.243Z,1012.01
2017-08-29T07:19:15.250Z,1012.00
2017-08-29T07:20:15.257Z,1012.04
2017-08-29T07:21:15.263Z,1012.04
2017-08-29T07:22:15.271Z,1012.05
2017-08-29T07:23:15.278Z,1012.03
2017-08-29T07:24:15.283Z,1012.06
2017-08-29T07:25:15.295Z,1012.06
2017-08-29T07:26:15.303Z,1012.08
2017-08-29T07:27:15.311Z,1012.10
2017-08-29T07:28:15.316Z,1012.10
2017-08-29T07:29:15.320Z,1012.06
2017-08-29T07:30:15.326Z,1012.04
2017-08-29T07:31:15.335Z,1012.09
2017-08-29T07:32:15.340Z,1012.12
2017-08-29T07:33:15.354Z,1012.13
2017-08-29T07:34:15.366Z,1012.13
2017-08-29T07:35:15.369Z,1012.15
2017-08-29T07:36:15.378Z,1012.12
2017-08-29T07:37:15.383Z,1012.14
2017-08-29T07:38:15.393Z,1012.16
2017-08-29T07:39:15.401Z,1012.17
2017-08-29T07:40:15.408Z,1012.17
2017-08-29T07:41:15.412Z,1012.20
2017-08-29T07:42:15.421Z,1012.18
2017-08-29T07:43:15.431Z,1012.27
2017-08-29T07:44:15.439Z,1012.25
2017-08-29T07:45:15.450Z,1012.22
2017-08-29T07:46:15.463Z,1012.26
2017-08-29T07:47:15.467Z,1012.19
2017-08-29T07:48:15.476Z,1012.27
2017-08-29T07:49:15.492Z,1012.26
2017-08-29T07:50:15.502Z,1012.21
2017-08-29T07:51:15.512Z,1012.25
2017-08-29T07:52:15.522Z,1012.21
2017-08-29T07:53:15.533Z,1012.19
2017-08-29T07:54:15.545Z,1012.19
2017-08-29T07:55:15.555Z,1012.19
2017-08-29T07:56:15.566Z,1012.19
2017-08-29T07:57:15.573Z,1012.19
2017-08-29T07:58:15.585Z,1012.17
2017-08-29T07:59:15.596Z,1012.14
2017-08-29T08:00:15.609Z,1012.15
2017-08-29T08:01:15.618Z,1012.13
2017-08-29T08:02:15.632Z,1012.20
2017-08-29T08:03:15.642Z,1012.22
2017-08-29T08:04:15.654Z,1012.16
2017-08-29T08:05:15.671Z,1012.21
2017-08-29T08:06:15.693Z,1012.23
2017-08-29T08:07:15.695Z,1012.29
2017-08-29T08:08:15.707Z,1012.30
2017-08-29T08:09:15.719Z,1012.28
2017-08-29T08:10:15.732Z,1012.29
2017-08-29T08:11:15.768Z,1012.24
2017-08-29T08:12:15.763Z,1012.22
2017-08-29T08:13:15.772Z,1012.24
2017-08-29T08:14:15.778Z,1012.22
2017-08-29T08:15:15.794Z,1012.23
2017-08-29T08:16:15.804Z,1012.29
2017-08-29T08:17:15.816Z,1012.27
2017-08-29T08:18:15.828Z,1012.29
2017-08-29T08:19:15.843Z,1012.31
2017-08-29T08:20:15.854Z,1012.34
2017-08-29T08:21:15.872Z,1012.33
2017-08-29T08:22:15.885Z,1012.29
2017-08-29T08:23:15.897Z,1012.32
2017-08-29T08:24:15.911Z,1012.32
2017-08-29T08:25:15.922Z,1012.34
2017-08-29T08:26:15.937Z,1012.35
2017-08-29T08:27:15.950Z,1012.34
2017-08-29T08:28:15.961Z,1012.33
2017-08-29T08:29:15.970Z,1012.33
2017-08-29T08:30:15.985Z,1012.35
2017-08-29T08:31:15.997Z,1012.33
2017-08-29T08:32:16.011Z,1012.34
2017-08-29T08:33:16.029Z,1012.30
2017-08-29T08:34:16.043Z,1012.34
2017-08-29T08:35:16.057Z,1012.36
2017-08-29T08:36:16.072Z,1012.34
2017-08-29T08:37:16.080Z,1012.29
2017-08-29T08:38:16.094Z,1012.34
2017-08-29T08:39:16.107Z,1012.35
2017-08-29T08:40:16.119Z,1012.35
2017-08-29T08:41:16.135Z,1012.34
2017-08-29T08:42:16.149Z,1012.36
2017-08-29T08:43:16.168Z,1012.37
2017-08-29T08:44:16.177Z,1012.35
2017-08-29T08:45:16.196Z,1012.31
2017-08-29T08:46:16.209Z,1012.30
2017-08-29T08:47:16.225Z,1012.33
2017-08-29T08:48:16.238Z,1012.33
2017-08-29T08:49:16.252Z,1012.26
2017-08-29T08:50:16.267Z,1012.25
2017-08-29T08:51:16.282Z,1012.25
2017-08-29T08:52:16.296Z,1012.18
2017-08-29T08:53:16.307Z,1012.16
2017-08-29T08:54:16.323Z,1012.19
2017-08-29T08:55:16.338Z,1012.19
2017-08-29T08:56:16.353Z,1012.19
2017-08-29T08:57:16.369Z,1012.20
2017-08-29T08:58:16.385Z,1012.21
2017-08-29T08:59:16.400Z,1012.21
2017-08-29T09:00:16.417Z,1012.24
2017-08-29T09:01:16.437Z,1012.21
2017-08-29T09:02:16.452Z,1012.18
2017-08-29T09:03:16.469Z,1012.17
2017-08-29T09:04:16.514Z,1012.16
2017-08-29T09:05:16.502Z,1012.16
2017-08-29T09:06:16.524Z,1012.14
2017-08-29T09:07:16.535Z,1012.15
2017-08-29T09:08:16.551Z,1012.14
2017-08-29T09:09:16.563Z,1012.10
2017-08-29T09:10:16.582Z,1012.14
2017-08-29T09:11:16.598Z,1012.05
2017-08-29T09:12:16.616Z,1012.01
2017-08-29T09:13:16.632Z,1011.98
2017-08-29T09:14:16.650Z,1011.96
2017-08-29T09:15:16.666Z,1011.99
2017-08-29T09:16:16.683Z,1011.97
2017-08-29T09:17:16.705Z,1011.97
2017-08-29T09:18:16.724Z,1011.90
2017-08-29T09:19:16.740Z,1011.92
2017-08-29T09:20:16.762Z,1011.85
2017-08-29T09:21:16.779Z,1011.90
2017-08-29T09:22:16.794Z,1011.88
2017-08-29T09:23:16.812Z,1011.85
2017-08-29T09:24:16.830Z,1011.86
2017-08-29T09:25:16.843Z,1011.90
2017-08-29T09:26:16.861Z,1011.91
2017-08-29T09:27:16.889Z,1011.93
2017-08-29T09:28:16.896Z,1011.97
2017-08-29T09:29:16.914Z,1012.00
2017-08-29T09:30:16.932Z,1012.08
2017-08-29T09:31:16.952Z,1012.15
2017-08-29T09:32:16.968Z,1012.18
2017-08-29T09:33:16.990Z,1012.21
2017-08-29T09:34:17.009Z,1012.27
2017-08-29T09:35:17.025Z,1012.22
2017-08-29T09:36:17.051Z,1012.23
2017-08-29T09:37:17.058Z,1012.23
2017-08-29T09:38:17.077Z,1012.44
2017-08-29T09:39:17.097Z,1012.22
2017-08-29T09:40:17.112Z,1011.95
2017-08-29T09:41:17.135Z,1011.84
2017-08-29T09:42:17.155Z,1011.81
2017-08-29T09:43:17.173Z,1011.81
2017-08-29T09:44:17.191Z,1011.84
2017-08-29T09:45:17.209Z,1011.80
2017-08-29T09:46:17.228Z,1011.88
2017-08-29T09:47:17.248Z,1012.10
2017-08-29T09:48:17.265Z,1012.34
2017-08-29T09:49:17.281Z,1012.40
2017-08-29T09:50:17.301Z,1012.37
2017-08-29T09:51:17.319Z,1012.35
2017-08-29T09:52:17.337Z,1012.31
2017-08-29T09:53:17.356Z,1012.35
2017-08-29T09:54:17.377Z,1012.23
2017-08-29T09:55:17.397Z,1012.15
2017-08-29T09:56:17.415Z,1012.07
2017-08-29T09:57:17.439Z,1012.01
2017-08-29T09:58:17.459Z,1011.92
2017-08-29T09:59:17.477Z,1011.95
2017-08-29T10:00:17.498Z,1011.94
2017-08-29T10:01:17.518Z,1011.91
2017-08-29T10:02:17.538Z,1011.84
2017-08-29T10:03:17.561Z,1011.83
2017-08-29T10:04:17.577Z,1011.70
2017-08-29T10:05:17.591Z,1011.62
2017-08-29T10:06:17.612Z,1011.56
2017-08-29T10:07:17.630Z,1011.55
2017-08-29T10:08:17.650Z,1011.54
2017-08-29T10:09:17.669Z,1011.48
2017-08-29T10:10:17.687Z,1011.47
2017-08-29T10:11:17.708Z,1011.45
2017-08-29T10:12:17.727Z,1011.47
2017-08-29T10:13:17.748Z,1011.43
2017-08-29T10:14:17.768Z,1011.44
2017-08-29T10:15:17.788Z,1011.40
2017-08-29T10:16:17.811Z,1011.44
2017-08-29T10:17:17.827Z,1011.38
2017-08-29T10:18:17.844Z,1011.37
2017-08-29T10:19:17.863Z,1011.36
2017-08-29T10:20:17.881Z,1011.36
2017-08-29T10:21:17.895Z,1011.31
2017-08-29T10:22:17.914Z,1011.36
2017-08-29T10:23:17.932Z,1011.31
2017-08-29T10:24:17.950Z,1011.36
2017-08-29T10:25:17.970Z,1011.32
2017-08-29T10:26:17.987Z,1011.32
2017-08-29T10:27:18.006Z,1011.28
2017-08-29T10:28:18.024Z,1011.34
2017-08-29T10:29:18.047Z,1011.32
2017-08-29T10:30:18.066Z,1011.34
2017-08-29T10:31:18.084Z,1011.31
2017-08-29T10:32:18.101Z,1011.31
2017-08-29T10:33:18.122Z,1011.31
2017-08-29T10:34:18.138Z,1011.31
2017-08-29T10:35:18.166Z,1011.31
2017-08-29T10:36:18.174Z,1011.25
2017-08-29T10:37:18.188Z,1011.24
2017-08-29T10:38:18.206Z,1011.24
2017-08-29T10:39:18.224Z,1011.22
2017-08-29T10:40:18.240Z,1011.23
2017-08-29T10:41:18.263Z,1011.22
2017-08-29T10:42:18.283Z,1011.24
2017-08-29T10:43:18.300Z,1011.23
2017-08-29T10:44:18.320Z,1011.26
2017-08-29T10:45:18.331Z,1011.23
2017-08-29T10:46:18.352Z,1011.25
2017-08-29T10:47:18.367Z,1011.21
2017-08-29T10:48:18.384Z,1011.13
2017-08-29T10:49:18.402Z,1011.20
2017-08-29T10:50:18.421Z,1011.13
2017-08-29T10:51:18.441Z,1011.19
2017-08-29T10:52:18.454Z,1011.15
2017-08-29T10:53:18.477Z,1011.17
2017-08-29T10:54:18.495Z,1011.15
2017-08-29T10:55:18.514Z,1011.17
2017-08-29T10:56:18.531Z,1011.11
2017-08-29T10:57:18.553Z,1011.12
2017-08-29T10:58:18.566Z,1011.08
2017-08-29T10:59:18.584Z,1011.08
2017-08-29T11:00:18.605Z,1010.98
2017-08-29T11:01:18.616Z,1010.96
2017-08-29T11:02:18.634Z,1010.98
2017-08-29T11:03:18.651Z,1010.96
2017-08-29T11:04:18.669Z,1010.92
2017-08-29T11:05:18.687Z,1010.91
2017-08-29T11:06:18.703Z,1010.88
2017-08-29T11:07:18.721Z,1010.92
2017-08-29T11:08:18.738Z,1010.88
2017-08-29T11:09:18.760Z,1010.86
2017-08-29T11:10:18.777Z,1010.88
2017-08-29T11:11:18.795Z,1010.88
2017-08-29T11:12:18.815Z,1010.86
2017-08-29T11:13:18.828Z,1010.85
2017-08-29T11:14:18.849Z,1010.90
2017-08-29T11:15:18.864Z,1010.89
2017-08-29T11:16:18.879Z,1010.86
2017-08-29T11:17:18.892Z,1010.84
2017-08-29T11:18:18.910Z,1010.80
2017-08-29T11:19:18.927Z,1010.78
2017-08-29T11:20:18.942Z,1010.69
2017-08-29T11:21:18.963Z,1010.68
2017-08-29T11:22:18.976Z,1010.65
2017-08-29T11:23:18.994Z,1010.57
2017-08-29T11:24:19.009Z,1010.56
2017-08-29T11:25:19.030Z,1010.44
2017-08-29T11:26:19.047Z,1010.49
2017-08-29T11:27:19.063Z,1010.38
2017-08-29T11:28:19.076Z,1010.40
2017-08-29T11:29:19.093Z,1010.37
2017-08-29T11:30:19.107Z,1010.35
2017-08-29T11:31:19.124Z,1010.36
2017-08-29T11:32:19.141Z,1010.35
2017-08-29T11:33:19.148Z,1010.29
2017-08-29T11:34:19.161Z,1010.28
2017-08-29T11:35:19.176Z,1010.28
2017-08-29T11:36:19.189Z,1010.28
2017-08-29T11:37:19.200Z,1010.32
2017-08-29T11:38:19.215Z,1010.28
2017-08-29T11:39:19.226Z,1010.33
2017-08-29T11:40:19.238Z,1010.27
2017-08-29T11:41:19.255Z,1010.35
2017-08-29T11:42:19.268Z,1010.35
2017-08-29T11:43:19.280Z,1010.32
2017-08-29T11:44:19.290Z,1010.30
2017-08-29T11:45:19.297Z,1010.25
2017-08-29T11:46:19.307Z,1010.22
2017-08-29T11:47:19.317Z,1010.20
2017-08-29T11:48:19.327Z,1010.21
2017-08-29T11:49:19.342Z,1010.22
2017-08-29T11:50:19.353Z,1010.12
2017-08-29T11:51:19.363Z,1010.07
2017-08-29T11:52:19.370Z,1010.09
2017-08-29T11:53:19.380Z,1010.05
2017-08-29T11:54:19.390Z,1010.01
2017-08-29T11:55:19.400Z,1010.05
2017-08-29T11:56:19.408Z,1010.05
2017-08-29T11:57:19.412Z,1010.02
2017-08-29T11:58:19.422Z,1010.03
2017-08-29T11:59:19.431Z,1010.01
2017-08-29T12:00:19.441Z,1010.00
2017-08-29T12:01:19.445Z,1009.95
2017-08-29T12:02:19.455Z,1009.98
2017-08-29T12:03:19.463Z,1009.93
2017-08-29T12:04:19.470Z,1009.98
2017-08-29T12:05:19.484Z,1010.04